createdAt,value
2019-01-15T00:02:53.605Z,4.70
2019-01-15T00:06:57.032Z,4.70
2019-01-15T00:11:00.456Z,4.80
2019-01-15T00:15:06.824Z,4.70
2019-01-15T00:19:10.246Z,4.80
2019-01-15T00:23:13.675Z,4.80
2019-01-15T00:27:17.104Z,4.80
2019-01-15T00:31:20.524Z,4.80
2019-01-15T00:35:23.946Z,4.80
2019-01-15T00:39:27.372Z,4.80
2019-01-15T00:43:30.787Z,4.80
2019-01-15T00:47:34.215Z,4.80
2019-01-15T00:51:37.645Z,4.80
2019-01-15T00:55:41.077Z,4.80
2019-01-15T00:59:44.490Z,4.90
2019-01-15T01:03:47.911Z,4.80
2019-01-15T01:07:51.339Z,4.70
2019-01-15T01:11:54.763Z,4.70
2019-01-15T01:15:58.199Z,4.70
2019-01-15T01:20:01.630Z,4.60
2019-01-15T01:24:05.114Z,4.70
2019-01-15T01:28:08.547Z,4.80
2019-01-15T01:32:11.967Z,4.80
2019-01-15T01:36:15.395Z,4.80
2019-01-15T01:40:19.847Z,4.90
2019-01-15T01:44:23.278Z,4.90
2019-01-15T01:48:26.701Z,4.90
2019-01-15T01:52:30.131Z,4.90
2019-01-15T01:56:33.576Z,4.80
2019-01-15T02:00:36.993Z,4.80
2019-01-15T02:04:40.414Z,4.80
2019-01-15T02:08:43.840Z,4.90
2019-01-15T02:12:47.351Z,4.80
2019-01-15T02:16:50.758Z,4.80
2019-01-15T02:20:54.199Z,4.70
2019-01-15T02:24:57.623Z,4.70
2019-01-15T02:29:01.050Z,4.80
2019-01-15T02:33:04.557Z,4.80
2019-01-15T02:37:07.962Z,4.80
2019-01-15T02:41:11.404Z,4.80
2019-01-15T02:45:18.239Z,4.70
2019-01-15T02:49:21.672Z,4.70
2019-01-15T02:53:25.078Z,4.60
2019-01-15T02:57:28.511Z,4.60
2019-01-15T03:01:31.940Z,4.70
2019-01-15T03:05:35.559Z,4.70
2019-01-15T03:09:38.979Z,4.60
2019-01-15T03:13:42.420Z,4.70
2019-01-15T03:17:45.901Z,4.70
2019-01-15T03:21:49.367Z,4.70
2019-01-15T03:25:52.850Z,4.70
2019-01-15T03:29:56.271Z,4.70
2019-01-15T03:33:59.707Z,4.70
2019-01-15T03:38:03.110Z,4.80
2019-01-15T03:42:06.523Z,4.80
2019-01-15T03:46:09.950Z,4.80
2019-01-15T03:50:13.719Z,4.70
2019-01-15T03:54:17.122Z,4.70
2019-01-15T03:58:20.564Z,4.70
2019-01-15T04:02:23.988Z,4.70
2019-01-15T04:06:27.410Z,4.70
2019-01-15T04:10:30.908Z,4.60
2019-01-15T04:14:34.312Z,4.60
2019-01-15T04:18:37.751Z,4.70
2019-01-15T04:22:41.164Z,4.60
2019-01-15T04:26:44.588Z,4.60
2019-01-15T04:30:48.008Z,4.70
2019-01-15T04:34:51.427Z,4.70
2019-01-15T04:38:54.860Z,4.70
2019-01-15T04:42:58.295Z,4.80
2019-01-15T04:47:01.712Z,4.70
2019-01-15T04:51:05.215Z,4.80
2019-01-15T04:55:10.872Z,4.80
2019-01-15T04:59:14.299Z,4.90
2019-01-15T05:03:17.730Z,4.90
2019-01-15T05:07:21.138Z,4.80
2019-01-15T05:11:24.583Z,4.80
2019-01-15T05:15:27.998Z,4.80
2019-01-15T05:19:31.414Z,4.80
2019-01-15T05:23:34.844Z,4.80
2019-01-15T05:27:38.260Z,4.80
2019-01-15T05:31:41.683Z,4.90
2019-01-15T05:35:45.166Z,5.00
2019-01-15T05:39:48.592Z,5.00
2019-01-15T05:43:52.013Z,4.90
2019-01-15T05:47:57.067Z,4.80
2019-01-15T05:52:00.513Z,4.80
2019-01-15T05:56:04.062Z,4.80
2019-01-15T06:00:15.822Z,4.80
2019-01-15T06:04:19.251Z,5.00
2019-01-15T06:08:22.687Z,5.00
2019-01-15T06:12:26.112Z,5.10
2019-01-15T06:16:29.519Z,5.10
2019-01-15T06:20:32.946Z,5.10
2019-01-15T06:24:36.367Z,5.20
2019-01-15T06:28:39.867Z,5.20
2019-01-15T06:32:43.279Z,5.10
2019-01-15T06:36:46.700Z,5.10
2019-01-15T06:40:50.123Z,5.20
2019-01-15T06:44:53.617Z,5.20
2019-01-15T06:48:57.039Z,5.20
2019-01-15T06:53:00.638Z,5.20
2019-01-15T06:57:04.236Z,5.20
2019-01-15T07:01:07.676Z,5.20
2019-01-15T07:05:11.231Z,5.20
2019-01-15T07:09:14.664Z,5.20
2019-01-15T07:13:18.071Z,5.20
2019-01-15T07:17:21.503Z,5.10
2019-01-15T07:21:25.109Z,5.20
2019-01-15T07:25:29.871Z,5.10
2019-01-15T07:29:33.295Z,5.10
2019-01-15T07:33:36.719Z,5.10
2019-01-15T07:37:40.130Z,5.20
2019-01-15T07:41:43.554Z,5.30
2019-01-15T07:45:46.978Z,5.40
2019-01-15T07:49:50.391Z,5.40
2019-01-15T07:53:53.886Z,5.40
2019-01-15T07:57:57.865Z,5.40
2019-01-15T08:02:01.563Z,5.40
2019-01-15T08:06:05.453Z,5.50
2019-01-15T08:10:11.987Z,5.50
2019-01-15T08:14:15.477Z,5.40
2019-01-15T08:18:18.911Z,5.50
2019-01-15T08:22:22.335Z,5.60
2019-01-15T08:26:25.766Z,5.50
2019-01-15T08:30:37.154Z,5.50
2019-01-15T08:34:40.571Z,5.60
2019-01-15T08:38:44.002Z,5.60
2019-01-15T08:42:47.978Z,5.60
2019-01-15T08:46:51.401Z,5.70
2019-01-15T08:50:55.187Z,5.70
2019-01-15T08:54:58.611Z,5.80
2019-01-15T08:59:02.041Z,5.90
2019-01-15T09:03:05.605Z,5.90
2019-01-15T09:07:09.089Z,5.90
2019-01-15T09:11:12.492Z,6.00
2019-01-15T09:15:21.099Z,5.90
2019-01-15T09:19:24.594Z,5.90
2019-01-15T09:23:28.023Z,5.80
2019-01-15T09:27:31.427Z,5.80
2019-01-15T09:31:34.854Z,5.80
2019-01-15T09:35:38.285Z,6.00
2019-01-15T09:39:41.715Z,6.00
2019-01-15T09:43:45.155Z,6.00
2019-01-15T09:47:50.210Z,6.00
2019-01-15T09:51:53.631Z,6.20
2019-01-15T09:55:57.059Z,6.40
2019-01-15T10:00:00.488Z,6.40
2019-01-15T10:04:04.075Z,6.40
2019-01-15T10:08:07.611Z,6.50
2019-01-15T10:12:11.039Z,6.50
2019-01-15T10:16:14.463Z,6.50
2019-01-15T10:20:19.225Z,6.60
2019-01-15T10:24:22.646Z,6.70
2019-01-15T10:28:26.057Z,6.70
2019-01-15T10:32:34.023Z,6.70
2019-01-15T10:36:36.383Z,6.90
2019-01-15T10:40:39.807Z,6.90
2019-01-15T10:44:48.607Z,7.10
2019-01-15T10:48:48.379Z,7.20
2019-01-15T10:52:51.803Z,7.40
2019-01-15T10:56:55.227Z,7.30
2019-01-15T11:00:58.655Z,7.30
2019-01-15T11:05:02.071Z,7.40
2019-01-15T11:09:08.675Z,7.40
2019-01-15T11:13:12.095Z,7.40
2019-01-15T11:17:15.523Z,7.30
2019-01-15T11:21:18.945Z,7.20
2019-01-15T11:25:22.372Z,7.10
2019-01-15T11:29:25.787Z,7.00
2019-01-15T11:33:29.213Z,7.10
2019-01-15T11:37:32.643Z,7.10
2019-01-15T11:41:36.062Z,7.10
2019-01-15T11:45:39.482Z,7.20
2019-01-15T11:49:42.891Z,7.10
2019-01-15T11:53:46.331Z,7.20
2019-01-15T11:57:50.697Z,7.20
2019-01-15T12:02:22.028Z,7.30
2019-01-15T12:06:25.055Z,7.20
2019-01-15T12:10:46.614Z,7.20
2019-01-15T12:14:57.643Z,7.30
2019-01-15T12:19:02.743Z,7.30
2019-01-15T12:23:08.179Z,7.40
2019-01-15T12:27:21.960Z,7.50
2019-01-15T12:31:27.027Z,7.70
2019-01-15T12:35:34.791Z,7.90
2019-01-15T12:39:55.975Z,7.70
2019-01-15T12:44:03.951Z,8.00
2019-01-15T12:48:15.020Z,7.90
2019-01-15T12:52:38.208Z,8.00
2019-01-15T12:56:52.052Z,8.10
2019-01-15T13:00:59.558Z,8.10
2019-01-15T13:05:07.638Z,8.00
2019-01-15T13:09:18.530Z,7.80
2019-01-15T13:13:40.258Z,7.60
2019-01-15T13:17:45.309Z,7.50
2019-01-15T13:21:53.304Z,7.60
2019-01-15T13:25:58.371Z,7.40
2019-01-15T13:30:03.441Z,7.40
2019-01-15T13:34:08.504Z,7.40
2019-01-15T13:38:13.555Z,7.40
2019-01-15T13:42:30.664Z,7.50
2019-01-15T13:46:41.472Z,7.60
2019-01-15T13:50:49.212Z,7.70
2019-01-15T13:55:09.262Z,7.60
2019-01-15T13:59:14.315Z,7.60
2019-01-15T14:03:35.759Z,7.70
2019-01-15T14:07:49.963Z,7.70
2019-01-15T14:12:06.944Z,7.80
2019-01-15T14:16:12.016Z,7.70
2019-01-15T14:20:29.087Z,7.80
2019-01-15T14:24:40.218Z,7.80
2019-01-15T14:28:51.024Z,7.80
2019-01-15T14:33:14.123Z,7.70
2019-01-15T14:37:35.754Z,7.70
2019-01-15T14:41:56.731Z,7.70
2019-01-15T14:46:17.936Z,7.60
2019-01-15T14:50:23.129Z,7.60
2019-01-15T14:54:28.187Z,7.60
2019-01-15T14:58:39.212Z,7.50
2019-01-15T15:02:47.363Z,7.60
2019-01-15T15:07:04.676Z,7.60
2019-01-15T15:11:18.515Z,7.60
2019-01-15T15:15:35.858Z,7.50
2019-01-15T15:19:52.839Z,7.50
2019-01-15T15:24:09.895Z,7.50
2019-01-15T15:28:20.615Z,7.50
2019-01-15T15:32:28.855Z,7.50
2019-01-15T15:36:36.459Z,7.40
2019-01-15T15:40:44.465Z,7.40
2019-01-15T15:44:49.536Z,7.30
2019-01-15T15:48:57.313Z,7.30
2019-01-15T15:53:18.853Z,7.30
2019-01-15T15:57:23.947Z,7.30
2019-01-15T16:01:29.012Z,7.20
2019-01-15T16:05:36.752Z,7.20
2019-01-15T16:09:44.323Z,7.20
2019-01-15T16:13:49.391Z,7.20
2019-01-15T16:18:03.311Z,7.20
2019-01-15T16:22:11.411Z,7.20
2019-01-15T16:26:22.579Z,7.20
2019-01-15T16:30:33.519Z,7.20
2019-01-15T16:34:53.591Z,7.20
2019-01-15T16:38:58.712Z,7.10
2019-01-15T16:43:06.339Z,7.20
2019-01-15T16:47:17.431Z,7.10
2019-01-15T16:51:37.198Z,7.10
2019-01-15T16:55:48.343Z,7.10
2019-01-15T17:00:03.862Z,7.10
2019-01-15T17:04:14.673Z,7.10
2019-01-15T17:08:38.139Z,7.00
2019-01-15T17:12:43.207Z,7.00
2019-01-15T17:16:51.235Z,7.00
2019-01-15T17:21:14.333Z,6.90
2019-01-15T17:25:31.295Z,6.90
2019-01-15T17:29:48.607Z,7.00
2019-01-15T17:34:10.043Z,6.90
2019-01-15T17:38:31.255Z,6.90
2019-01-15T17:42:36.328Z,6.90
2019-01-15T17:46:56.343Z,6.90
2019-01-15T17:51:07.151Z,7.00
2019-01-15T17:55:20.927Z,7.00
2019-01-15T17:59:26.035Z,7.10
2019-01-15T18:03:52.981Z,7.00
2019-01-15T18:08:09.187Z,7.10
2019-01-15T18:12:20.027Z,7.10
2019-01-15T18:16:25.099Z,7.10
2019-01-15T18:20:30.167Z,7.10
2019-01-15T18:24:35.237Z,7.20
2019-01-15T18:28:45.978Z,7.10
2019-01-15T18:32:56.994Z,7.10
2019-01-15T18:37:02.067Z,7.20
2019-01-15T18:41:09.817Z,7.10
2019-01-15T18:45:20.632Z,7.10
2019-01-15T18:49:37.663Z,7.00
2019-01-15T18:53:45.322Z,7.00
2019-01-15T18:57:56.539Z,7.10
2019-01-15T19:02:22.227Z,7.00
2019-01-15T19:06:36.139Z,7.10
2019-01-15T19:10:41.211Z,7.10
2019-01-15T19:14:46.263Z,7.10
2019-01-15T19:18:57.068Z,7.10
2019-01-15T19:23:19.839Z,7.00
2019-01-15T19:27:30.771Z,6.90
2019-01-15T19:31:38.276Z,6.90
2019-01-15T19:35:52.059Z,6.90
2019-01-15T19:39:57.127Z,6.90
2019-01-15T19:44:17.424Z,6.90
2019-01-15T19:48:38.708Z,6.90
2019-01-15T19:53:02.013Z,6.90
2019-01-15T19:57:07.080Z,6.90
2019-01-15T20:01:12.136Z,6.90
2019-01-15T20:05:23.640Z,6.90
2019-01-15T20:09:40.649Z,6.90
2019-01-15T20:14:01.952Z,6.90
2019-01-15T20:18:07.028Z,6.90
2019-01-15T20:22:12.079Z,6.90
2019-01-15T20:26:33.544Z,6.90
2019-01-15T20:30:53.672Z,6.90
2019-01-15T20:35:10.781Z,6.90
2019-01-15T20:39:24.620Z,6.80
2019-01-15T20:43:38.879Z,6.90
2019-01-15T20:47:43.937Z,6.90
2019-01-15T20:52:04.320Z,6.80
2019-01-15T20:56:09.387Z,6.80
2019-01-15T21:00:14.887Z,6.80
2019-01-15T21:04:19.964Z,6.80
2019-01-15T21:08:25.012Z,6.80
2019-01-15T21:12:46.287Z,6.70
2019-01-15T21:17:07.803Z,6.60
2019-01-15T21:21:21.379Z,6.70
2019-01-15T21:25:35.540Z,6.80
2019-01-15T21:29:46.534Z,7.10
2019-01-15T21:33:54.276Z,6.90
2019-01-15T21:37:59.344Z,6.90
2019-01-15T21:42:04.408Z,7.00
2019-01-15T21:46:09.482Z,7.00
2019-01-15T21:50:20.703Z,7.00
2019-01-15T21:54:42.067Z,7.00
2019-01-15T21:59:02.095Z,6.90
2019-01-15T22:03:07.186Z,6.90
2019-01-15T22:07:14.991Z,7.00
2019-01-15T22:11:23.129Z,7.00
2019-01-15T22:15:43.163Z,6.90
2019-01-15T22:19:50.939Z,7.00
2019-01-15T22:24:04.995Z,7.00
2019-01-15T22:28:12.724Z,7.00
2019-01-15T22:32:23.463Z,7.00
2019-01-15T22:36:37.266Z,7.00
2019-01-15T22:40:51.413Z,7.00
2019-01-15T22:45:08.422Z,7.00
2019-01-15T22:49:13.489Z,7.00
2019-01-15T22:53:33.483Z,7.00
2019-01-15T22:57:47.446Z,7.00
2019-01-15T23:01:55.439Z,7.00
2019-01-15T23:06:09.344Z,7.00
2019-01-15T23:10:14.419Z,7.00
2019-01-15T23:14:37.562Z,7.00
2019-01-15T23:18:42.642Z,7.00
2019-01-15T23:22:47.706Z,7.10
2019-01-15T23:26:52.774Z,7.00
2019-01-15T23:31:00.820Z,7.00
2019-01-15T23:35:23.080Z,6.90
2019-01-15T23:39:43.368Z,7.00
2019-01-15T23:43:51.167Z,6.90
2019-01-15T23:48:09.695Z,7.00
2019-01-15T23:52:17.656Z,7.00
2019-01-15T23:56:37.998Z,7.00
